Time;durP1;ratioP1;P1;durP2;ratioP2;P2;SDS_P1;SDS_P2;PMS_P1;PMS_P2;Temp;Humidity;BMP_temperature;BMP_pressure;BME280_temperature;BME280_humidity;BME280_pressure;Samples;Min_cycle;Max_cycle;Signal;HPM_P1;HPM_P2
2023/02/11 00:00:35;;;;;;;18.90;13.83;;;;;;;2.52;62.13;97465.38;6073318;23;20204;-80
2023/02/11 00:03:01;;;;;;;20.23;13.97;;;;;;;2.53;62.02;97467.03;6043023;23;20220;-80
2023/02/11 00:05:29;;;;;;;20.30;14.97;;;;;;;2.60;61.60;97457.34;6070424;23;20217;-80
2023/02/11 00:07:55;;;;;;;20.87;15.03;;;;;;;2.64;61.63;97461.38;6073328;23;20421;-80
2023/02/11 00:10:22;;;;;;;18.80;13.80;;;;;;;2.67;61.93;97456.13;6072068;23;20211;-80
2023/02/11 00:12:48;;;;;;;19.00;13.80;;;;;;;2.64;62.23;97461.38;6057900;23;20212;-80
2023/02/11 00:15:15;;;;;;;19.27;14.43;;;;;;;2.62;61.90;97474.19;6071837;23;20204;-80
2023/02/11 00:17:41;;;;;;;19.93;14.40;;;;;;;2.56;62.74;97460.97;6072802;23;20187;-80
2023/02/11 00:20:08;;;;;;;20.07;13.70;;;;;;;2.60;61.87;97465.81;6073171;23;20212;-80
2023/02/11 00:22:36;;;;;;;18.80;14.53;;;;;;;2.61;62.36;97467.44;6072340;23;20185;-80
2023/02/11 00:25:03;;;;;;;19.83;14.77;;;;;;;2.55;62.84;97474.56;6072133;23;20555;-80
2023/02/11 00:27:29;;;;;;;17.87;13.93;;;;;;;2.55;62.84;97466.94;6072357;23;20229;-80
2023/02/11 00:29:56;;;;;;;19.60;14.57;;;;;;;2.56;63.04;97468.59;6072046;23;20592;-80
2023/02/11 00:32:22;;;;;;;19.03;13.53;;;;;;;2.58;62.94;97459.16;6072284;23;20180;-80
2023/02/11 00:34:52;;;;;;;19.47;14.10;;;;;;;2.55;62.67;97451.69;6071610;23;20219;-80
2023/02/11 00:37:18;;;;;;;19.03;13.13;;;;;;;2.57;62.85;97454.97;6071924;23;20177;-80
2023/02/11 00:39:46;;;;;;;15.97;13.30;;;;;;;2.57;62.73;97457.50;6071219;23;20264;-80
2023/02/11 00:42:14;;;;;;;19.37;13.93;;;;;;;2.55;63.23;97447.41;6056702;23;20240;-80
2023/02/11 00:44:41;;;;;;;21.33;14.50;;;;;;;2.56;63.23;97451.59;6071163;23;20220;-80
2023/02/11 00:47:07;;;;;;;16.80;13.80;;;;;;;2.54;63.42;97444.97;6071873;23;20252;-80
2023/02/11 00:49:34;;;;;;;19.13;14.23;;;;;;;2.53;63.16;97441.59;6072103;23;20177;-80
2023/02/11 00:52:00;;;;;;;19.70;14.27;;;;;;;2.39;63.93;97431.34;6071394;23;20173;-80
2023/02/11 00:54:27;;;;;;;20.10;14.07;;;;;;;2.41;63.44;97439.72;6071261;23;20487;-80
2023/02/11 00:56:54;;;;;;;18.13;14.17;;;;;;;2.41;63.18;97432.91;6072158;23;20718;-80
2023/02/11 00:59:21;;;;;;;19.47;13.73;;;;;;;2.42;63.68;97436.25;6071582;23;20181;-80
2023/02/11 01:01:47;;;;;;;17.40;13.40;;;;;;;2.36;63.60;97434.84;6072049;23;20181;-80
2023/02/11 01:04:14;;;;;;;20.63;14.47;;;;;;;2.29;64.05;97435.28;6072227;23;20180;-80
2023/02/11 01:06:40;;;;;;;19.60;14.47;;;;;;;2.35;63.74;97438.28;6071346;23;20213;-80
2023/02/11 01:09:06;;;;;;;19.70;13.60;;;;;;;2.33;64.03;97432.47;6071506;23;20264;-80
2023/02/11 01:11:33;;;;;;;19.13;13.90;;;;;;;2.31;63.87;97433.47;6070864;23;20204;-80
2023/02/11 01:14:01;;;;;;;17.67;13.47;;;;;;;2.33;63.35;97432.47;6071037;23;20185;-80
2023/02/11 01:16:27;;;;;;;16.93;13.30;;;;;;;2.27;63.97;97435.34;6070770;23;20710;-80
2023/02/11 01:18:54;;;;;;;17.83;13.90;;;;;;;2.31;63.88;97438.56;6071492;23;20718;-80
2023/02/11 01:21:20;;;;;;;17.57;13.30;;;;;;;2.31;63.85;97436.03;6070387;23;20208;-80
2023/02/11 01:23:47;;;;;;;17.37;12.30;;;;;;;2.33;64.05;97432.47;6071685;23;20228;-80
2023/02/11 01:26:13;;;;;;;15.43;12.53;;;;;;;2.35;63.54;97434.94;6070017;23;20216;-80
2023/02/11 01:28:40;;;;;;;16.60;13.00;;;;;;;2.33;63.34;97427.38;6070191;23;20181;-80
2023/02/11 01:31:08;;;;;;;18.07;12.67;;;;;;;2.25;64.10;97429.53;6069999;23;20213;-80
2023/02/11 01:33:34;;;;;;;16.00;11.73;;;;;;;2.23;63.68;97431.31;6072054;23;20840;-80
2023/02/11 01:36:01;;;;;;;16.47;12.53;;;;;;;2.25;63.58;97428.72;6071220;23;20219;-80
2023/02/11 01:38:28;;;;;;;16.73;12.53;;;;;;;2.23;63.77;97433.03;6071515;23;20188;-80
2023/02/11 01:40:57;;;;;;;14.53;11.53;;;;;;;2.19;64.00;97434.91;6070526;23;20208;-80
2023/02/11 01:43:24;;;;;;;16.73;12.60;;;;;;;2.19;63.96;97434.09;6071036;23;20177;-80
2023/02/11 01:46:10;;;;;;;14.83;11.70;;;;;;;2.20;63.62;97436.56;6070047;23;20216;-80
2023/02/11 01:48:42;;;;;;;18.30;12.57;;;;;;;2.21;63.60;97432.31;6055517;23;20205;-80
2023/02/11 01:51:12;;;;;;;18.27;12.47;;;;;;;2.22;63.46;97432.22;6070322;23;20275;-80
2023/02/11 01:59:38;;;;;;;16.60;13.07;;;;;;;2.15;63.65;97424.97;5942127;24;20216;-80
2023/02/11 02:02:10;;;;;;;17.67;12.67;;;;;;;2.17;63.84;97430.81;6016467;23;20208;-80
2023/02/11 02:04:44;;;;;;;18.57;13.17;;;;;;;2.14;63.74;97436.88;6070147;23;20169;-80
2023/02/11 02:07:17;;;;;;;16.93;12.97;;;;;;;2.15;63.41;97433.44;6070676;23;20201;-80
2023/02/11 02:09:49;;;;;;;17.97;13.10;;;;;;;2.11;63.53;97424.34;6071579;23;20684;-80
2023/02/11 02:12:15;;;;;;;18.03;12.77;;;;;;;2.08;63.97;97425.31;6071264;23;20169;-80
2023/02/11 02:14:42;;;;;;;15.43;11.93;;;;;;;2.05;63.82;97420.41;6071454;23;20196;-80
2023/02/11 02:17:16;;;;;;;13.97;11.60;;;;;;;2.07;63.86;97423.69;6072102;23;20220;-81
2023/02/11 02:20:08;;;;;;;15.77;11.53;;;;;;;2.09;63.88;97423.59;6070412;23;20209;-81
2023/02/11 02:23:23;;;;;;;17.23;12.13;;;;;;;2.10;63.60;97410.00;6070290;23;20193;-80
2023/02/11 02:26:19;;;;;;;17.53;11.57;;;;;;;2.07;63.65;97407.63;6010134;23;20210;-80
2023/02/11 02:29:19;;;;;;;15.67;11.83;;;;;;;2.10;63.90;97396.47;6066872;23;20181;-80
2023/02/11 02:32:02;;;;;;;17.27;11.43;;;;;;;2.11;63.38;97393.03;6069993;23;20205;-80
2023/02/11 02:34:37;;;;;;;15.17;11.13;;;;;;;2.06;63.94;97383.94;6070323;23;20534;-80
2023/02/11 02:37:11;;;;;;;15.03;11.00;;;;;;;1.99;64.16;97382.59;6054442;23;20219;-80
2023/02/11 02:39:42;;;;;;;17.20;11.50;;;;;;;1.96;63.88;97376.84;6070238;23;20612;-80
2023/02/11 02:42:09;;;;;;;15.47;11.80;;;;;;;1.97;63.56;97366.63;6069804;23;20338;-80
2023/02/11 02:44:36;;;;;;;15.13;10.73;;;;;;;1.99;64.06;97381.78;6070559;23;20418;-80
2023/02/11 02:47:02;;;;;;;15.97;11.50;;;;;;;1.99;64.00;97376.69;6072211;23;20207;-80
2023/02/11 02:49:28;;;;;;;15.43;11.00;;;;;;;1.96;63.88;97382.75;6072943;23;20183;-81
2023/02/11 02:52:06;;;;;;;13.97;10.40;;;;;;;1.92;63.97;97371.13;6072257;23;20192;-81
2023/02/11 02:54:57;;;;;;;13.57;10.23;;;;;;;1.91;64.07;97371.22;6072062;23;20196;-80
2023/02/11 02:57:32;;;;;;;14.83;10.07;;;;;;;1.90;64.22;97362.78;6072694;23;20161;-81
2023/02/11 03:00:13;;;;;;;13.63;9.83;;;;;;;1.88;64.15;97362.03;6072323;23;20204;-80
2023/02/11 03:02:48;;;;;;;13.27;10.20;;;;;;;1.91;63.97;97359.34;6072026;23;20541;-79
2023/02/11 03:05:21;;;;;;;11.37;9.50;;;;;;;1.94;63.64;97355.78;6072215;23;21563;-81
2023/02/11 03:07:56;;;;;;;12.30;9.27;;;;;;;1.94;63.32;97348.16;6071695;23;20183;-80
2023/02/11 03:10:26;;;;;;;13.73;9.60;;;;;;;1.97;63.20;97346.28;6071771;23;20204;-80
2023/02/11 03:12:54;;;;;;;12.53;9.17;;;;;;;1.98;62.94;97335.22;6056267;23;20208;-80
2023/02/11 03:15:24;;;;;;;13.00;9.97;;;;;;;2.00;63.16;97325.81;6071279;23;20211;-80
2023/02/11 03:17:53;;;;;;;11.57;8.80;;;;;;;2.00;62.68;97330.91;6071618;23;20185;-80
2023/02/11 03:20:22;;;;;;;13.60;9.40;;;;;;;1.96;63.03;97323.50;6071180;23;20208;-80
2023/02/11 03:22:55;;;;;;;11.57;9.13;;;;;;;1.93;62.67;97321.94;6056410;23;20216;-80
2023/02/11 03:25:28;;;;;;;12.97;8.97;;;;;;;1.90;62.77;97326.38;6070901;23;20213;-80
2023/02/11 03:28:03;;;;;;;13.70;9.20;;;;;;;1.88;62.60;97329.00;6071669;23;20161;-80
2023/02/11 03:30:34;;;;;;;11.37;9.10;;;;;;;1.89;62.63;97332.38;6071879;23;20200;-80
2023/02/11 03:33:06;;;;;;;11.80;8.30;;;;;;;1.91;62.56;97330.56;6071205;23;20161;-80
2023/02/11 03:35:38;;;;;;;11.97;8.70;;;;;;;1.89;62.57;97335.72;6070619;23;20216;-80
2023/02/11 03:38:11;;;;;;;11.50;8.60;;;;;;;1.84;62.88;97329.25;6055886;23;20215;-80
2023/02/11 03:40:41;;;;;;;13.13;8.70;;;;;;;1.86;62.49;97335.06;6071004;23;20223;-80
2023/02/11 03:43:12;;;;;;;10.90;8.00;;;;;;;1.89;62.06;97340.81;6056453;23;20213;-80
2023/02/11 03:45:39;;;;;;;11.67;8.00;;;;;;;1.95;61.74;97324.41;6070946;23;20220;-80
2023/02/11 03:48:12;;;;;;;9.60;7.67;;;;;;;1.97;61.62;97331.06;6071384;23;20238;-80
2023/02/11 03:50:40;;;;;;;10.60;7.97;;;;;;;1.91;62.12;97338.19;6071423;23;20222;-80
2023/02/11 03:53:09;;;;;;;11.57;7.87;;;;;;;1.90;61.96;97337.38;6041773;23;20208;-80
2023/02/11 03:55:39;;;;;;;12.83;7.80;;;;;;;1.88;61.70;97344.25;6071657;23;20715;-80
2023/02/11 03:58:06;;;;;;;12.97;8.30;;;;;;;1.91;61.90;97344.09;6072688;23;20639;-80
2023/02/11 04:00:35;;;;;;;11.00;8.30;;;;;;;1.96;62.07;97347.19;6071055;23;20209;-80
2023/02/11 04:03:01;;;;;;;10.23;7.63;;;;;;;2.00;61.83;97335.16;6071494;23;20188;-80
2023/02/11 04:05:28;;;;;;;10.87;7.57;;;;;;;1.99;61.35;97330.97;6071836;23;20620;-80
2023/02/11 04:07:54;;;;;;;11.23;7.77;;;;;;;1.96;61.53;97329.41;6072444;23;20580;-80
2023/02/11 04:10:22;;;;;;;10.07;7.63;;;;;;;1.96;60.90;97341.28;6071099;23;20209;-80
2023/02/11 04:12:48;;;;;;;10.93;7.40;;;;;;;1.99;61.22;97346.22;6055284;23;20215;-80
2023/02/11 04:15:15;;;;;;;9.03;7.13;;;;;;;1.97;61.30;97338.66;6070379;23;20212;-80
2023/02/11 04:17:42;;;;;;;7.70;6.53;;;;;;;1.98;60.97;97339.50;6072102;23;20180;-80
2023/02/11 04:20:10;;;;;;;9.87;7.10;;;;;;;1.96;61.00;97354.81;6070187;23;20208;-80
2023/02/11 04:22:37;;;;;;;9.27;7.47;;;;;;;1.98;61.05;97352.19;6069824;23;20181;-80
2023/02/11 04:25:04;;;;;;;8.80;7.37;;;;;;;1.96;61.21;97352.28;6070289;23;20204;-80
2023/02/11 04:27:32;;;;;;;9.53;7.23;;;;;;;1.96;61.25;97343.81;6069925;23;20236;-80
2023/02/11 04:29:58;;;;;;;8.90;7.13;;;;;;;1.91;60.92;97346.63;6069820;23;20243;-81
2023/02/11 04:32:25;;;;;;;11.97;7.77;;;;;;;1.91;61.55;97356.78;6070484;23;20188;-80
2023/02/11 04:34:53;;;;;;;10.27;7.40;;;;;;;1.91;61.51;97364.41;6070592;23;20208;-80
2023/02/11 04:37:19;;;;;;;10.53;8.00;;;;;;;1.94;61.73;97366.75;6071354;23;20201;-80
2023/02/11 04:39:45;;;;;;;9.97;7.60;;;;;;;1.93;61.63;97372.75;6071492;23;20206;-80
2023/02/11 04:42:12;;;;;;;10.20;7.43;;;;;;;1.94;61.54;97368.47;6054650;23;20216;-80
2023/02/11 04:44:40;;;;;;;9.30;7.30;;;;;;;1.88;61.63;97382.34;6070319;23;20201;-80
2023/02/11 04:47:06;;;;;;;10.47;7.70;;;;;;;1.84;61.85;97380.84;6069923;23;20253;-81
2023/02/11 04:49:33;;;;;;;12.73;8.70;;;;;;;1.82;62.24;97377.56;6070102;23;20181;-80
2023/02/11 04:51:59;;;;;;;10.50;7.73;;;;;;;1.79;62.21;97387.88;6069304;23;20185;-80
2023/02/11 04:54:26;;;;;;;8.90;7.37;;;;;;;1.74;62.38;97392.38;6069467;23;20236;-80
2023/02/11 04:56:52;;;;;;;9.80;7.63;;;;;;;1.73;61.98;97396.63;6070142;23;20644;-80
2023/02/11 04:59:18;;;;;;;9.90;7.97;;;;;;;1.72;62.24;97406.88;6069439;23;20185;-80
2023/02/11 05:01:46;;;;;;;10.50;7.97;;;;;;;1.74;62.14;97403.34;6069528;23;20247;-80
2023/02/11 05:04:13;;;;;;;11.03;7.90;;;;;;;1.71;62.05;97400.97;6070202;23;20207;-81
2023/02/11 05:06:39;;;;;;;11.47;8.23;;;;;;;1.72;62.04;97394.19;6069744;23;20230;-81
2023/02/11 05:09:06;;;;;;;10.90;8.43;;;;;;;1.73;62.26;97390.75;6069990;23;20199;-80
2023/02/11 05:11:32;;;;;;;13.37;7.90;;;;;;;1.71;62.63;97393.38;6070116;23;20687;-80
2023/02/11 05:13:59;;;;;;;11.17;8.60;;;;;;;1.68;62.85;97397.78;6070013;23;20180;-80
2023/02/11 05:16:25;;;;;;;10.57;8.03;;;;;;;1.65;62.95;97393.66;6069336;23;20205;-80
2023/02/11 05:18:54;;;;;;;9.10;7.40;;;;;;;1.62;63.07;97385.38;6055072;23;20711;-80
2023/02/11 05:21:21;;;;;;;11.70;8.47;;;;;;;1.61;62.95;97391.34;6069016;23;20204;-80
2023/02/11 05:23:47;;;;;;;10.00;8.20;;;;;;;1.59;62.92;97382.97;6068630;23;20184;-81
2023/02/11 05:26:14;;;;;;;10.63;8.13;;;;;;;1.63;63.14;97379.41;6067729;23;20220;-80
2023/02/11 05:28:41;;;;;;;11.83;8.03;;;;;;;1.65;62.92;97370.00;6068569;23;20200;-80
2023/02/11 05:31:08;;;;;;;10.57;8.27;;;;;;;1.60;63.43;97372.75;6068216;23;20204;-80
2023/02/11 05:33:34;;;;;;;10.97;7.97;;;;;;;1.61;63.23;97371.88;6054386;23;20212;-81
2023/02/11 05:36:05;;;;;;;10.23;8.30;;;;;;;1.57;63.12;97377.97;6068739;23;20208;-80
2023/02/11 05:38:32;;;;;;;11.33;7.40;;;;;;;1.60;63.10;97377.84;6068358;23;20180;-80
2023/02/11 05:40:59;;;;;;;11.40;8.40;;;;;;;1.65;62.80;97370.00;6068584;23;20209;-80
2023/02/11 05:43:25;;;;;;;10.53;7.93;;;;;;;1.63;62.76;97369.25;6069829;23;20252;-81
2023/02/11 05:45:52;;;;;;;10.90;8.40;;;;;;;1.65;62.97;97357.31;6068774;23;20263;-81
2023/02/11 05:48:18;;;;;;;12.50;8.00;;;;;;;1.67;62.95;97355.50;6069254;23;20177;-80
2023/02/11 05:50:45;;;;;;;9.23;7.77;;;;;;;1.66;63.02;97353.88;6068737;23;20208;-80
2023/02/11 05:53:13;;;;;;;9.77;7.53;;;;;;;1.59;63.22;97350.81;6068884;23;20172;-80
2023/02/11 05:55:39;;;;;;;11.00;7.70;;;;;;;1.62;63.53;97363.34;6068716;23;20208;-80
2023/02/11 05:58:07;;;;;;;10.07;7.90;;;;;;;1.64;63.70;97351.41;6068854;23;20181;-80
2023/02/11 06:00:34;;;;;;;10.73;7.30;;;;;;;2.21;79.87;97351.00;6066765;23;20236;-80
2023/02/11 06:03:03;;;;;;;9.77;7.40;;;;;;;2.16;65.80;97333.44;6069715;23;20180;-81
2023/02/11 06:05:29;;;;;;;8.87;6.90;;;;;;;2.03;65.21;97338.34;6067248;23;20236;-81
2023/02/11 06:07:55;;;;;;;8.27;7.03;;;;;;;1.96;65.08;97337.03;6068589;23;20196;-80
2023/02/11 06:10:23;;;;;;;11.83;7.53;;;;;;;1.88;65.26;97334.09;6067712;23;20208;-81
2023/02/11 06:12:50;;;;;;;8.93;6.60;;;;;;;1.81;65.37;97332.75;6069360;23;20237;-80
2023/02/11 06:15:16;;;;;;;10.50;7.37;;;;;;;1.85;65.30;97344.41;6068409;23;20260;-81
2023/02/11 06:17:43;;;;;;;8.53;6.53;;;;;;;1.80;65.11;97341.28;6069486;23;20177;-80
2023/02/11 06:20:10;;;;;;;7.43;6.03;;;;;;;1.73;64.76;97347.59;6069348;23;20502;-81
2023/02/11 06:22:37;;;;;;;8.67;6.63;;;;;;;1.73;64.43;97343.28;6071944;23;20177;-83
2023/02/11 06:25:04;;;;;;;8.57;6.60;;;;;;;1.79;64.41;97339.63;6071942;23;20208;-80
2023/02/11 06:27:32;;;;;;;10.20;7.00;;;;;;;1.89;64.21;97348.44;6070998;23;20205;-81
2023/02/11 06:29:59;;;;;;;7.73;6.40;;;;;;;1.95;63.71;97352.34;6069978;23;20209;-80
2023/02/11 06:32:26;;;;;;;7.73;6.27;;;;;;;1.95;63.58;97354.88;6055750;23;20213;-81
2023/02/11 06:34:53;;;;;;;8.30;6.97;;;;;;;1.97;63.89;97361.53;6069905;23;20207;-81
2023/02/11 06:37:19;;;;;;;8.03;6.50;;;;;;;2.00;63.74;97358.00;6070471;23;20228;-81
2023/02/11 06:39:46;;;;;;;9.70;7.00;;;;;;;1.99;63.80;97357.19;6069274;23;20204;-82
2023/02/11 06:42:12;;;;;;;8.23;6.93;;;;;;;2.03;63.98;97355.31;6069080;23;20233;-82
2023/02/11 06:44:40;;;;;;;7.73;6.47;;;;;;;2.07;63.60;97357.63;6069170;23;20200;-82
2023/02/11 06:47:07;;;;;;;6.90;6.20;;;;;;;2.11;63.24;97352.38;6069906;23;20216;-81
2023/02/11 06:49:33;;;;;;;8.90;6.80;;;;;;;2.11;63.10;97348.13;6069223;23;20247;-82
2023/02/11 06:52:00;;;;;;;8.60;6.40;;;;;;;2.15;63.40;97348.75;6070332;23;20561;-81
2023/02/11 06:54:26;;;;;;;10.00;6.43;;;;;;;2.22;63.23;97350.09;6070294;23;20177;-81
2023/02/11 06:56:52;;;;;;;9.23;7.00;;;;;;;2.28;62.90;97352.31;6068016;23;20197;-81
2023/02/11 06:59:20;;;;;;;8.27;6.57;;;;;;;2.32;62.77;97358.84;6068537;23;20181;-82
2023/02/11 07:01:48;;;;;;;8.27;6.67;;;;;;;2.32;63.93;97357.13;6068978;23;20272;-81
2023/02/11 07:04:14;;;;;;;8.97;6.60;;;;;;;2.37;63.12;97367.06;6068038;23;20173;-81
2023/02/11 07:06:41;;;;;;;8.50;6.30;;;;;;;2.34;62.88;97367.22;6068164;23;20216;-81
2023/02/11 07:09:08;;;;;;;8.63;6.97;;;;;;;2.26;64.15;97369.34;6068064;23;20181;-81
2023/02/11 07:11:34;;;;;;;10.43;7.10;;;;;;;2.32;62.25;97364.75;6066584;23;20209;-81
2023/02/11 07:14:03;;;;;;;8.57;6.27;;;;;;;2.29;63.43;97372.56;6068974;23;20250;-81
2023/02/11 07:16:30;;;;;;;8.70;7.10;;;;;;;2.35;63.20;97368.84;6070213;23;20217;-81
2023/02/11 07:18:58;;;;;;;8.90;7.07;;;;;;;2.35;63.43;97376.47;6071711;23;20593;-81
2023/02/11 07:21:25;;;;;;;7.83;6.20;;;;;;;2.41;62.92;97363.44;6070555;23;20252;-81
2023/02/11 07:23:51;;;;;;;9.43;6.30;;;;;;;2.42;61.72;97357.47;5998927;23;20533;-81
2023/02/11 07:26:21;;;;;;;10.50;6.80;;;;;;;2.42;61.57;97354.91;6064594;23;20209;-81
2023/02/11 07:28:49;;;;;;;9.33;6.83;;;;;;;2.45;61.16;97348.84;6071153;23;20181;-81
2023/02/11 07:31:17;;;;;;;9.37;6.17;;;;;;;2.48;61.69;97346.16;6071128;23;20208;-82
2023/02/11 07:33:47;;;;;;;8.97;6.93;;;;;;;2.50;61.41;97337.53;6070827;23;20203;-81
2023/02/11 07:36:16;;;;;;;8.77;6.47;;;;;;;2.51;61.25;97338.34;6066436;23;20224;-81
2023/02/11 07:38:43;;;;;;;9.80;6.70;;;;;;;2.54;61.65;97350.88;6072475;23;20645;-81
2023/02/11 07:41:11;;;;;;;8.97;6.70;;;;;;;2.58;61.04;97354.91;6069890;23;20215;-81
2023/02/11 07:43:39;;;;;;;8.80;6.20;;;;;;;2.62;61.30;97358.94;6070715;23;20192;-81
2023/02/11 07:46:07;;;;;;;9.30;6.50;;;;;;;2.66;60.47;97355.31;6068573;23;20267;-81
2023/02/11 07:48:34;;;;;;;10.03;6.47;;;;;;;2.65;60.50;97351.13;6070944;23;20177;-82
2023/02/11 07:51:09;;;;;;;11.40;7.07;;;;;;;2.70;60.99;97354.22;6069524;23;20208;-82
2023/02/11 07:53:37;;;;;;;8.67;5.90;;;;;;;2.75;60.22;97352.25;6071232;23;20183;-82
2023/02/11 07:56:05;;;;;;;8.17;6.00;;;;;;;2.78;59.76;97349.53;6069315;23;20224;-81
2023/02/11 07:58:31;;;;;;;9.73;5.53;;;;;;;2.81;59.37;97346.00;6071743;23;20181;-82
2023/02/11 08:01:01;;;;;;;6.90;5.60;;;;;;;2.89;58.72;97348.94;6070469;23;20212;-81
2023/02/11 08:03:27;;;;;;;6.83;5.67;;;;;;;2.89;58.62;97333.66;6070961;23;20177;-82
2023/02/11 08:05:54;;;;;;;8.43;5.30;;;;;;;2.86;58.23;97321.97;6070113;23;20216;-82
2023/02/11 08:08:20;;;;;;;9.60;6.03;;;;;;;2.85;57.89;97319.50;6071370;23;20629;-81
2023/02/11 08:10:48;;;;;;;7.97;5.47;;;;;;;2.86;57.49;97321.97;6070575;23;20475;-82
2023/02/11 08:13:14;;;;;;;8.10;5.53;;;;;;;2.92;57.21;97320.78;6071896;23;20180;-82
2023/02/11 08:15:41;;;;;;;10.57;5.83;;;;;;;2.97;56.56;97323.91;6070911;23;20225;-81
2023/02/11 08:18:07;;;;;;;7.47;5.50;;;;;;;3.09;57.00;97326.56;6070350;23;20172;-81
2023/02/11 08:20:34;;;;;;;10.23;6.10;;;;;;;3.26;56.46;97323.06;6071611;23;20216;-81
2023/02/11 08:23:01;;;;;;;11.57;6.00;;;;;;;3.34;56.24;97317.50;6070067;23;20177;-81
2023/02/11 08:25:27;;;;;;;7.53;5.60;;;;;;;3.35;55.88;97319.97;6070310;23;20227;-81
2023/02/11 08:27:55;;;;;;;8.43;6.47;;;;;;;3.49;56.07;97308.97;6070538;23;20197;-81
2023/02/11 08:30:22;;;;;;;10.30;6.37;;;;;;;3.56;56.18;97312.81;6054923;23;20344;-81
2023/02/11 08:32:48;;;;;;;10.20;7.33;;;;;;;3.61;56.00;97323.53;6038700;23;20220;-81
2023/02/11 08:35:15;;;;;;;11.03;7.17;;;;;;;3.61;56.23;97322.72;6071424;23;20208;-82
2023/02/11 08:37:45;;;;;;;9.00;6.53;;;;;;;3.58;56.47;97317.81;6072149;23;20177;-81
2023/02/11 08:40:12;;;;;;;8.97;6.77;;;;;;;3.61;56.12;97323.53;6070894;23;20215;-81
2023/02/11 08:42:38;;;;;;;9.40;7.23;;;;;;;3.74;56.65;97339.72;6072444;23;20217;-82
2023/02/11 08:45:09;;;;;;;10.77;6.93;;;;;;;3.87;56.14;97346.63;6071930;23;20204;-82
2023/02/11 08:47:35;;;;;;;14.13;6.77;;;;;;;3.93;56.35;97347.09;6072354;23;20217;-81
2023/02/11 08:50:02;;;;;;;8.47;6.00;;;;;;;3.96;56.59;97341.00;6071480;23;20214;-81
2023/02/11 08:52:28;;;;;;;7.63;6.13;;;;;;;3.99;56.17;97330.63;6071668;23;20184;-82
2023/02/11 08:54:54;;;;;;;10.70;6.50;;;;;;;4.06;56.24;97334.41;6069773;23;20209;-81
2023/02/11 08:57:21;;;;;;;13.17;7.23;;;;;;;4.06;56.70;97340.34;6055553;23;20212;-81
2023/02/11 08:59:47;;;;;;;10.27;6.97;;;;;;;3.99;57.01;97338.25;6070347;23;20213;-81
2023/02/11 09:02:15;;;;;;;10.23;7.50;;;;;;;3.97;57.19;97340.09;6070013;23;20188;-81
2023/02/11 09:04:42;;;;;;;9.60;7.63;;;;;;;4.02;56.88;97323.63;6070423;23;20200;-81
2023/02/11 09:07:08;;;;;;;14.83;9.63;;;;;;;4.09;56.94;97321.50;6039861;23;20309;-81
2023/02/11 09:09:35;;;;;;;11.27;8.30;;;;;;;4.09;56.56;97314.66;6070100;23;20232;-81
2023/02/11 09:12:01;;;;;;;12.33;8.83;;;;;;;4.10;56.29;97318.84;6054630;23;20205;-81
2023/02/11 09:14:28;;;;;;;13.23;9.57;;;;;;;4.09;55.85;97313.84;6068946;23;20180;-81
2023/02/11 09:16:55;;;;;;;13.93;9.00;;;;;;;4.11;55.84;97323.03;6069241;23;20264;-81
2023/02/11 09:19:23;;;;;;;12.97;8.50;;;;;;;4.15;55.75;97332.13;6069690;23;20181;-82
2023/02/11 09:21:50;;;;;;;23.33;8.50;;;;;;;4.15;55.97;97331.31;6057871;23;20208;-81
2023/02/11 09:24:17;;;;;;;11.43;7.90;;;;;;;4.21;56.05;97319.94;6072190;23;20188;-81
2023/02/11 09:26:43;;;;;;;10.10;7.87;;;;;;;4.23;55.69;97308.72;6071756;23;20210;-82
2023/02/11 09:29:13;;;;;;;12.00;8.17;;;;;;;4.27;55.78;97315.25;6070003;23;20201;-82
2023/02/11 09:31:40;;;;;;;12.20;8.73;;;;;;;4.30;55.55;97324.44;6069427;23;20581;-80
2023/02/11 09:34:06;;;;;;;15.53;8.33;;;;;;;4.34;55.75;97323.34;6069393;23;20184;-81
2023/02/11 09:36:37;;;;;;;10.83;8.40;;;;;;;4.34;55.55;97310.59;6068413;23;20267;-81
2023/02/11 09:39:05;;;;;;;10.90;8.17;;;;;;;4.33;55.13;97314.88;6070255;23;20516;-81
2023/02/11 09:41:41;;;;;;;10.97;7.83;;;;;;;4.38;55.22;97315.44;6069584;23;20242;-82
2023/02/11 09:44:17;;;;;;;12.10;7.83;;;;;;;4.40;55.50;97322.97;6053553;23;20252;-81
2023/02/11 09:46:53;;;;;;;9.27;7.47;;;;;;;4.47;55.46;97332.69;6070909;23;20211;-82
2023/02/11 09:49:25;;;;;;;10.00;7.90;;;;;;;4.73;55.22;97338.72;6069249;23;20843;-81
2023/02/11 09:51:58;;;;;;;16.47;11.70;;;;;;;5.24;54.61;97336.25;6071008;23;20165;-81
2023/02/11 09:54:30;;;;;;;13.97;9.90;;;;;;;5.92;53.54;97330.88;6071139;23;20165;-81
2023/02/11 09:56:57;;;;;;;9.90;7.93;;;;;;;6.50;52.47;97319.97;6070258;23;20207;-82
2023/02/11 09:59:23;;;;;;;10.10;8.20;;;;;;;6.85;50.63;97312.34;6070341;23;20191;-82
2023/02/11 10:01:54;;;;;;;11.37;8.20;;;;;;;7.18;50.88;97301.38;6070375;23;20177;-81
2023/02/11 10:04:38;;;;;;;12.77;9.40;;;;;;;6.87;49.54;97290.00;6068955;23;20161;-82
2023/02/11 10:07:18;;;;;;;13.20;9.43;;;;;;;6.63;49.83;97290.94;6070688;23;20211;-81
2023/02/11 10:09:57;;;;;;;10.90;9.10;;;;;;;6.40;50.28;97295.13;6068462;23;20201;-81
2023/02/11 10:12:38;;;;;;;11.87;8.80;;;;;;;5.96;50.89;97280.38;6053089;23;20220;-81
2023/02/11 10:15:14;;;;;;;12.50;8.87;;;;;;;5.92;51.48;97272.09;6069006;23;20204;-82
2023/02/11 10:17:54;;;;;;;13.07;9.60;;;;;;;5.85;51.26;97269.09;6069181;23;20477;-81
2023/02/11 10:20:29;;;;;;;12.00;9.50;;;;;;;5.75;51.89;97273.22;6068602;23;20201;-81
2023/02/11 10:23:00;;;;;;;11.37;9.20;;;;;;;5.74;52.35;97273.31;6069906;23;20169;-81
2023/02/11 10:25:29;;;;;;;16.03;9.00;;;;;;;5.89;52.43;97287.63;6069822;23;20216;-81
2023/02/11 10:27:59;;;;;;;11.70;9.03;;;;;;;6.01;52.69;97298.75;6067900;23;20200;-80
2023/02/11 10:30:30;;;;;;;12.80;9.13;;;;;;;6.08;51.95;97293.09;6069516;23;20560;-81
2023/02/11 10:33:02;;;;;;;12.33;9.33;;;;;;;6.11;51.43;97284.41;6069660;23;20605;-81
2023/02/11 10:35:29;;;;;;;11.70;9.17;;;;;;;6.26;51.01;97288.44;6067641;23;20223;-81
2023/02/11 10:37:55;;;;;;;12.50;8.93;;;;;;;6.40;50.06;97285.72;6072551;23;20173;-80
2023/02/11 10:40:25;;;;;;;15.57;9.40;;;;;;;6.38;49.63;97281.63;6070410;23;20743;-81
2023/02/11 10:42:54;;;;;;;12.10;9.50;;;;;;;6.42;49.35;97277.94;6067506;23;20181;-81
2023/02/11 10:45:27;;;;;;;12.63;9.13;;;;;;;6.50;49.78;97284.16;6053098;23;20205;-81
2023/02/11 10:47:55;;;;;;;11.27;8.97;;;;;;;6.55;49.71;97286.38;6067210;23;20185;-81
2023/02/11 10:50:27;;;;;;;17.43;10.13;;;;;;;6.64;49.82;97277.22;6067289;23;20268;-81
2023/02/11 10:53:12;;;;;;;13.80;9.07;;;;;;;6.69;49.09;97281.09;6067307;23;20184;-81
2023/02/11 10:55:49;;;;;;;18.27;12.33;;;;;;;6.74;48.76;97283.31;6068082;23;20264;-81
2023/02/11 10:58:25;;;;;;;15.23;10.13;;;;;;;6.65;48.86;97276.31;6067765;23;20162;-81
2023/02/11 11:00:54;;;;;;;15.67;9.50;;;;;;;6.69;49.21;97267.47;6067097;23;20283;-82
2023/02/11 11:03:24;;;;;;;14.10;10.23;;;;;;;6.67;47.65;97264.22;6066363;23;20188;-83
2023/02/11 11:05:52;;;;;;;14.43;9.53;;;;;;;6.78;47.97;97257.38;6071076;23;20212;-81
2023/02/11 11:08:39;;;;;;;11.20;8.73;;;;;;;6.78;48.09;97265.06;6071434;23;20207;-81
2023/02/11 11:11:09;;;;;;;11.73;9.17;;;;;;;6.76;46.82;97263.53;6069706;23;20201;-81
2023/02/11 11:13:37;;;;;;;13.63;9.17;;;;;;;6.69;45.33;97267.47;6055901;23;20209;-81
2023/02/11 11:16:20;;;;;;;11.63;9.20;;;;;;;6.71;45.59;97255.41;6071692;23;20699;-81
2023/02/11 11:18:48;;;;;;;16.27;9.37;;;;;;;6.65;45.36;97260.94;6071999;23;20209;-81
2023/02/11 11:21:18;;;;;;;13.90;9.17;;;;;;;6.63;45.28;97263.63;6070231;23;20232;-81
2023/02/11 11:23:51;;;;;;;12.67;8.67;;;;;;;6.67;44.20;97253.97;6071321;23;20165;-81
2023/02/11 11:26:19;;;;;;;14.43;9.17;;;;;;;6.64;44.98;97252.44;6072896;23;20578;-81
2023/02/11 11:28:59;;;;;;;13.60;8.63;;;;;;;6.63;44.19;97248.25;6071306;23;20208;-82
2023/02/11 11:31:33;;;;;;;16.20;8.10;;;;;;;6.59;43.90;97239.97;6070772;23;20209;-81
2023/02/11 11:34:03;;;;;;;10.93;7.80;;;;;;;6.58;43.65;97245.22;6072300;23;20609;-81
2023/02/11 11:36:35;;;;;;;10.47;7.67;;;;;;;6.71;43.78;97240.84;6071159;23;20217;-82
2023/02/11 11:39:16;;;;;;;10.93;7.60;;;;;;;6.86;43.91;97236.34;6057417;23;20740;-82
2023/02/11 11:41:52;;;;;;;12.73;8.50;;;;;;;7.10;43.39;97237.09;6073480;23;20264;-81
2023/02/11 11:44:25;;;;;;;13.10;8.80;;;;;;;7.32;43.63;97223.47;6071295;23;20170;-81
2023/02/11 11:47:08;;;;;;;13.93;9.70;;;;;;;7.36;42.57;97229.19;6073693;23;20204;-82
2023/02/11 11:49:39;;;;;;;15.50;10.60;;;;;;;7.46;43.74;97233.53;6077975;23;20191;-81